This is the latest recevied weather packets stored in our database for station/object OE-11372. If no packets are shown the sender has not sent any weather packets the latest 10 day(s).
| Time | Temp. | Humidity | Pressure | Rain* | Wind** | Luminosity | Snow |
|---|---|---|---|---|---|---|---|
| 1787847076 | 26.67° C | 48% | 853.5 hPa | 0 mm | - | 173 W/m² | - |
| 1787846703 | 26.67° C | 46% | 853.8 hPa | 0 mm | - | 173 W/m² | - |
| 1787846103 | 27.22° C | 41% | 853.7 hPa | 0 mm | - | 165 W/m² | - |
| 1787845275 | 27.78° C | 39% | 853.9 hPa | 0 mm | - | 165 W/m² | - |
| 1787844903 | 27.78° C | 38% | 853.9 hPa | 0 mm | - | 206 W/m² | - |
| 1787844303 | 28.33° C | 34% | 854 hPa | 0 mm | - | 255 W/m² | - |
| 1787843476 | 28.33° C | 34% | 854 hPa | 0 mm | - | 297 W/m² | - |
| 1787843103 | 28.89° C | 33% | 854 hPa | 0 mm | - | 404 W/m² | - |
| 1787842503 | 28.33° C | 35% | 854 hPa | 0 mm | - | 338 W/m² | - |
| 1787841676 | 28.33° C | 35% | 854 hPa | 0 mm | - | 247 W/m² | - |
| 1787841303 | 29.44° C | 34% | 854.1 hPa | 0 mm | - | 428 W/m² | - |
| 1787839876 | 28.89° C | 35% | 854.1 hPa | 0 mm | - | 428 W/m² | - |
| 1787839503 | 28.89° C | 36% | 854.1 hPa | 0 mm | - | 486 W/m² | - |
| 1787838903 | 28.89° C | 36% | 853.8 hPa | 0 mm | - | 453 W/m² | - |
| 1787838076 | 28.89° C | 32% | 854 hPa | 0 mm | - | 453 W/m² | - |
| 1787837703 | 28.33° C | 38% | 854 hPa | 0 mm | - | 642 W/m² | - |
| 1787837103 | 27.22° C | 49% | 853.8 hPa | 0 mm | - | 708 W/m² | - |
| 1787836276 | 26.11° C | 50% | 853.8 hPa | 0 mm | - | 527 W/m² | - |
| 1787835902 | 26.11° C | 48% | 853.7 hPa | 0 mm | - | 577 W/m² | - |
| 1787835303 | 26.11° C | 51% | 853.9 hPa | 0 mm | - | 733 W/m² | - |
| 1787834476 | 25.56° C | 51% | 853.9 hPa | 0 mm | - | 684 W/m² | - |
| 1787834102 | 25° C | 50% | 854 hPa | 0 mm | - | 675 W/m² | - |
| 1787833503 | 25° C | 52% | 854 hPa | 0 mm | - | 535 W/m² | - |
| 1787832676 | 24.44° C | 53% | 854.2 hPa | 0 mm | - | 750 W/m² | - |
| 1787832303 | 23.89° C | 54% | 854.1 hPa | 0 mm | - | 758 W/m² | - |
* Rain latest hour (hover to see other rain measurements)
** Current wind speed in m/s (hover to see current wind gust speed)